createdAt,value
2022-11-08T00:01:53.637Z,7.93
2022-11-08T00:04:28.158Z,7.91
2022-11-08T00:07:18.449Z,7.87
2022-11-08T00:10:08.580Z,7.83
2022-11-08T00:12:58.727Z,7.79
2022-11-08T00:15:34.707Z,7.79
2022-11-08T00:18:08.184Z,7.76
2022-11-08T00:20:42.488Z,7.74
2022-11-08T00:23:15.302Z,7.74
2022-11-08T00:25:54.698Z,7.75
2022-11-08T00:28:27.495Z,7.71
2022-11-08T00:31:00.283Z,7.72
2022-11-08T00:33:33.431Z,7.71
2022-11-08T00:36:08.101Z,7.71
2022-11-08T00:38:43.952Z,7.70
2022-11-08T00:41:16.757Z,7.69
2022-11-08T00:43:49.734Z,7.68
2022-11-08T00:46:22.675Z,7.68
2022-11-08T00:48:55.530Z,7.66
2022-11-08T00:51:29.768Z,7.65
2022-11-08T00:54:02.789Z,7.62
2022-11-08T00:56:35.936Z,7.58
2022-11-08T00:59:09.334Z,7.58
2022-11-08T01:01:43.022Z,7.55
2022-11-08T01:04:17.912Z,7.54
2022-11-08T01:06:52.140Z,7.55
2022-11-08T01:09:25.049Z,7.52
2022-11-08T01:11:57.880Z,7.53
2022-11-08T01:14:30.806Z,7.51
2022-11-08T01:17:03.662Z,7.51
2022-11-08T01:19:36.580Z,7.55
2022-11-08T01:22:10.915Z,7.57
2022-11-08T01:24:43.885Z,7.56
2022-11-08T01:27:17.202Z,7.60
2022-11-08T01:29:50.190Z,7.62
2022-11-08T01:32:23.055Z,7.63
2022-11-08T01:34:56.087Z,7.64
2022-11-08T01:37:30.570Z,7.66
2022-11-08T01:40:03.732Z,7.62
2022-11-08T01:42:36.652Z,7.62
2022-11-08T01:45:11.769Z,7.61
2022-11-08T01:47:44.804Z,7.57
2022-11-08T01:50:19.948Z,7.56
2022-11-08T01:52:56.643Z,7.53
2022-11-08T01:55:36.584Z,7.50
2022-11-08T01:58:14.544Z,7.45
2022-11-08T02:00:47.719Z,7.40
2022-11-08T02:03:22.157Z,7.37
2022-11-08T02:05:55.200Z,7.33
2022-11-08T02:08:33.694Z,7.29
2022-11-08T02:11:08.770Z,7.26
2022-11-08T02:13:42.265Z,7.21
2022-11-08T02:16:17.199Z,7.18
2022-11-08T02:18:50.574Z,7.13
2022-11-08T02:21:29.500Z,7.11
2022-11-08T02:24:07.940Z,7.06
2022-11-08T02:26:41.524Z,7.02
2022-11-08T02:29:28.602Z,7.01
2022-11-08T02:32:03.366Z,6.94
2022-11-08T02:34:39.182Z,6.93
2022-11-08T02:37:15.084Z,6.90
2022-11-08T02:39:49.311Z,6.89
2022-11-08T02:42:22.411Z,6.85
2022-11-08T02:44:55.198Z,6.83
2022-11-08T02:47:28.665Z,6.80
2022-11-08T02:50:01.456Z,6.78
2022-11-08T02:52:34.289Z,6.75
2022-11-08T02:55:09.972Z,6.74
2022-11-08T02:57:42.846Z,6.73
2022-11-08T03:00:16.744Z,6.72
2022-11-08T03:02:53.762Z,6.71
2022-11-08T03:05:28.450Z,6.71
2022-11-08T03:08:01.492Z,6.71
2022-11-08T03:10:35.743Z,6.71
2022-11-08T03:13:08.915Z,6.71
2022-11-08T03:15:41.724Z,6.70
2022-11-08T03:18:16.753Z,6.69
2022-11-08T03:20:49.795Z,6.69
2022-11-08T03:23:22.702Z,6.66
2022-11-08T03:25:57.025Z,6.66
2022-11-08T03:28:30.086Z,6.65
2022-11-08T03:31:03.068Z,6.64
2022-11-08T03:33:36.064Z,6.65
2022-11-08T03:36:09.499Z,6.63
2022-11-08T03:38:42.457Z,6.64
2022-11-08T03:41:16.676Z,6.64
2022-11-08T03:43:49.551Z,6.61
2022-11-08T03:46:22.329Z,6.60
2022-11-08T03:48:55.253Z,6.59
2022-11-08T03:51:28.049Z,6.61
2022-11-08T03:54:00.937Z,6.61
2022-11-08T03:56:35.265Z,6.63
2022-11-08T03:59:08.369Z,6.61
2022-11-08T04:01:41.341Z,6.61
2022-11-08T04:04:14.285Z,6.60
2022-11-08T04:06:47.061Z,6.62
2022-11-08T04:09:21.657Z,6.64
2022-11-08T04:12:14.022Z,6.63
2022-11-08T04:15:05.059Z,6.64
2022-11-08T04:17:54.699Z,6.63
2022-11-08T04:20:45.227Z,6.63
2022-11-08T04:23:18.891Z,6.62
2022-11-08T04:25:56.049Z,6.61
2022-11-08T04:28:31.905Z,6.62
2022-11-08T04:31:07.500Z,6.60
2022-11-08T04:33:40.594Z,6.58
2022-11-08T04:36:15.931Z,6.57
2022-11-08T04:38:50.245Z,6.58
2022-11-08T04:41:25.003Z,6.56
2022-11-08T04:43:59.702Z,6.56
2022-11-08T04:46:32.743Z,6.57
2022-11-08T04:49:05.558Z,6.59
2022-11-08T04:51:38.478Z,6.61
2022-11-08T04:54:11.821Z,6.60
2022-11-08T04:56:44.894Z,6.63
2022-11-08T04:59:19.455Z,6.67
2022-11-08T05:01:52.447Z,6.69
2022-11-08T05:04:25.331Z,6.72
2022-11-08T05:06:58.272Z,6.79
2022-11-08T05:09:31.083Z,6.83
2022-11-08T05:12:04.088Z,6.86
2022-11-08T05:14:39.007Z,6.92
2022-11-08T05:17:11.942Z,6.95
2022-11-08T05:20:04.342Z,6.96
2022-11-08T05:22:54.741Z,7.01
2022-11-08T05:25:27.522Z,7.02
2022-11-08T05:28:00.521Z,7.07
2022-11-08T05:30:34.832Z,7.11
2022-11-08T05:33:07.716Z,7.13
2022-11-08T05:35:40.754Z,7.16
2022-11-08T05:38:13.874Z,7.17
2022-11-08T05:40:47.438Z,7.19
2022-11-08T05:43:20.585Z,7.19
2022-11-08T05:45:55.012Z,7.22
2022-11-08T05:48:27.984Z,7.17
2022-11-08T05:51:01.013Z,7.17
2022-11-08T05:53:33.825Z,7.14
2022-11-08T05:56:07.170Z,7.11
2022-11-08T05:58:40.125Z,7.07
2022-11-08T06:01:19.826Z,7.04
2022-11-08T06:03:52.893Z,7.01
2022-11-08T06:06:25.888Z,6.97
2022-11-08T06:08:58.761Z,6.93
2022-11-08T06:11:31.608Z,6.92
2022-11-08T06:14:04.576Z,6.90
2022-11-08T06:16:38.759Z,6.88
2022-11-08T06:19:11.732Z,6.88
2022-11-08T06:21:44.706Z,6.89
2022-11-08T06:24:18.533Z,6.93
2022-11-08T06:26:51.376Z,6.93
2022-11-08T06:29:24.404Z,6.96
2022-11-08T06:31:59.109Z,6.99
2022-11-08T06:34:31.963Z,7.01
2022-11-08T06:37:05.074Z,7.05
2022-11-08T06:39:38.194Z,7.10
2022-11-08T06:42:11.005Z,7.11
2022-11-08T06:44:43.850Z,7.17
2022-11-08T06:47:18.237Z,7.20
2022-11-08T06:49:51.228Z,7.23
2022-11-08T06:52:24.105Z,7.28
2022-11-08T06:54:57.035Z,7.33
2022-11-08T06:57:29.919Z,7.36
2022-11-08T07:00:03.229Z,7.39
2022-11-08T07:02:37.892Z,7.42
2022-11-08T07:05:11.303Z,7.43
2022-11-08T07:07:44.111Z,7.44
2022-11-08T07:10:17.001Z,7.43
2022-11-08T07:12:51.475Z,7.42
2022-11-08T07:15:24.611Z,7.40
2022-11-08T07:18:03.201Z,7.39
2022-11-08T07:20:36.419Z,7.36
2022-11-08T07:23:11.954Z,7.36
2022-11-08T07:25:44.858Z,7.35
2022-11-08T07:28:21.072Z,7.38
2022-11-08T07:30:59.925Z,7.41
2022-11-08T07:33:34.401Z,7.43
2022-11-08T07:36:07.708Z,7.48
2022-11-08T07:38:40.483Z,7.55
2022-11-08T07:41:13.340Z,7.64
2022-11-08T07:43:46.144Z,7.71
2022-11-08T07:46:18.965Z,7.77
2022-11-08T07:48:53.199Z,7.86
2022-11-08T07:51:26.095Z,7.95
2022-11-08T07:54:02.768Z,8.06
2022-11-08T07:56:44.641Z,8.17
2022-11-08T07:59:17.551Z,8.29
2022-11-08T08:01:50.521Z,8.42
2022-11-08T08:04:24.837Z,8.55
2022-11-08T08:06:58.860Z,8.69
2022-11-08T08:09:31.854Z,8.83
2022-11-08T08:12:05.160Z,8.95
2022-11-08T08:14:38.216Z,9.10
2022-11-08T08:17:10.998Z,9.24
2022-11-08T08:19:45.167Z,9.40
2022-11-08T08:22:18.017Z,9.58
2022-11-08T08:24:50.891Z,9.76
2022-11-08T08:27:23.799Z,9.91
2022-11-08T08:29:56.595Z,10.07
2022-11-08T08:32:31.629Z,10.24
2022-11-08T08:35:06.964Z,10.41
2022-11-08T08:37:40.220Z,10.56
2022-11-08T08:40:13.610Z,10.72
2022-11-08T08:42:46.572Z,10.90
2022-11-08T08:45:19.387Z,11.08
2022-11-08T08:47:53.788Z,11.26
2022-11-08T08:50:30.812Z,11.48
2022-11-08T08:53:06.126Z,11.64
2022-11-08T08:55:40.440Z,11.84
2022-11-08T08:58:13.328Z,12.01
2022-11-08T09:03:39.460Z,12.41
2022-11-08T09:06:15.670Z,12.62
2022-11-08T09:08:48.525Z,12.78
2022-11-08T09:11:21.383Z,12.98
2022-11-08T09:13:54.589Z,13.17
2022-11-08T09:16:27.439Z,13.35
2022-11-08T09:19:00.286Z,13.55
2022-11-08T09:21:34.724Z,13.74
2022-11-08T09:24:08.147Z,13.89
2022-11-08T09:26:40.984Z,14.06
2022-11-08T09:29:13.999Z,14.23
2022-11-08T09:31:46.820Z,14.36
2022-11-08T09:34:21.683Z,14.51
2022-11-08T09:36:57.084Z,14.69
2022-11-08T09:39:29.994Z,14.84
2022-11-08T09:42:41.500Z,15.05
2022-11-08T09:45:23.873Z,15.24
2022-11-08T09:48:04.793Z,15.40
2022-11-08T09:50:42.622Z,15.59
2022-11-08T09:53:20.801Z,15.73
2022-11-08T09:55:57.965Z,15.87
2022-11-08T09:58:35.422Z,15.99
2022-11-08T10:01:12.227Z,16.08
2022-11-08T10:03:49.040Z,16.17
2022-11-08T10:06:49.434Z,16.23
2022-11-08T10:09:41.114Z,16.30
2022-11-08T10:12:22.495Z,16.35
2022-11-08T10:15:09.095Z,16.41
2022-11-08T10:18:07.089Z,16.47
2022-11-08T10:20:51.880Z,16.54
2022-11-08T10:23:31.501Z,16.63
2022-11-08T10:26:12.320Z,16.76
2022-11-08T10:28:50.478Z,16.85
2022-11-08T10:31:23.523Z,16.98
2022-11-08T10:33:58.707Z,17.08
2022-11-08T10:36:36.519Z,17.19
2022-11-08T10:39:16.145Z,17.27
2022-11-08T10:41:59.852Z,17.33
2022-11-08T10:44:33.151Z,17.39
2022-11-08T10:47:12.285Z,17.44
2022-11-08T10:49:45.679Z,17.44
2022-11-08T10:52:21.519Z,17.42
2022-11-08T10:54:56.180Z,17.40
2022-11-08T10:57:40.418Z,17.38
2022-11-08T11:00:27.744Z,17.31
2022-11-08T11:03:02.195Z,17.25
2022-11-08T11:05:36.614Z,17.21
2022-11-08T11:08:19.015Z,17.18
2022-11-08T11:10:52.615Z,17.14
2022-11-08T11:16:06.566Z,17.13
2022-11-08T11:18:48.259Z,17.18
2022-11-08T11:21:25.270Z,17.23
2022-11-08T11:24:09.321Z,17.31
2022-11-08T11:26:46.729Z,17.40
2022-11-08T11:29:25.287Z,17.49
2022-11-08T11:31:58.735Z,17.58
2022-11-08T11:34:52.035Z,17.69
2022-11-08T11:37:40.890Z,17.81
2022-11-08T11:40:25.720Z,17.89
2022-11-08T11:43:06.354Z,17.98
2022-11-08T11:45:46.737Z,18.06
2022-11-08T11:48:27.888Z,18.13
2022-11-08T11:51:00.710Z,18.18
2022-11-08T11:53:38.764Z,18.24
2022-11-08T11:56:41.282Z,18.32
2022-11-08T11:59:34.389Z,18.38
2022-11-08T12:02:42.744Z,18.47
2022-11-08T12:06:00.344Z,18.52
2022-11-08T12:08:46.515Z,18.60
2022-11-08T12:11:38.461Z,18.68
2022-11-08T12:14:29.109Z,18.74
2022-11-08T12:17:19.624Z,18.81
2022-11-08T12:20:03.975Z,18.84
2022-11-08T12:22:51.914Z,18.92
2022-11-08T12:25:32.695Z,18.96
2022-11-08T12:28:20.023Z,19.01
2022-11-08T12:31:04.935Z,19.06
2022-11-08T12:33:48.235Z,19.10
2022-11-08T12:36:31.463Z,19.14
2022-11-08T12:39:22.180Z,19.16
2022-11-08T12:42:08.412Z,19.19
2022-11-08T12:45:01.921Z,19.21
2022-11-08T12:47:41.544Z,19.21
2022-11-08T12:50:22.682Z,19.19
2022-11-08T12:53:25.061Z,19.16
2022-11-08T12:55:59.564Z,19.08
2022-11-08T12:58:35.580Z,18.99
2022-11-08T13:01:15.404Z,18.90
2022-11-08T13:04:33.065Z,18.76
2022-11-08T13:07:13.050Z,18.62
2022-11-08T13:09:54.307Z,18.51
2022-11-08T13:12:36.724Z,18.40
2022-11-08T13:15:19.134Z,18.29
2022-11-08T13:18:34.511Z,18.19
2022-11-08T13:21:31.655Z,18.12
2022-11-08T13:24:44.004Z,18.03
2022-11-08T13:27:40.867Z,17.96
2022-11-08T13:30:38.893Z,17.92
2022-11-08T13:33:23.254Z,17.88
2022-11-08T13:36:10.065Z,17.84
2022-11-08T13:38:53.862Z,17.81
2022-11-08T13:41:27.482Z,17.76
2022-11-08T13:44:01.965Z,17.71
2022-11-08T13:46:49.377Z,17.69
2022-11-08T13:49:24.201Z,17.64
2022-11-08T13:52:30.147Z,17.60
2022-11-08T13:55:03.093Z,17.54
2022-11-08T13:57:59.129Z,17.48
2022-11-08T14:00:46.730Z,17.39
2022-11-08T14:03:54.857Z,17.30
2022-11-08T14:06:35.631Z,17.21
2022-11-08T14:09:19.195Z,17.14
2022-11-08T14:12:01.741Z,17.07
2022-11-08T14:14:43.516Z,17.00
2022-11-08T14:17:31.029Z,16.93
2022-11-08T14:20:28.450Z,16.88
2022-11-08T14:23:15.828Z,16.81
2022-11-08T14:25:52.017Z,16.73
2022-11-08T14:28:27.750Z,16.68
2022-11-08T14:31:02.707Z,16.62
2022-11-08T14:33:43.147Z,16.58
2022-11-08T14:36:17.505Z,16.51
2022-11-08T14:38:52.865Z,16.47
2022-11-08T14:41:29.157Z,16.43
2022-11-08T14:44:03.827Z,16.39
2022-11-08T14:46:39.086Z,16.35
2022-11-08T14:49:22.493Z,16.36
2022-11-08T14:52:13.725Z,16.31
2022-11-08T14:54:48.446Z,16.26
2022-11-08T14:57:43.358Z,16.25
2022-11-08T15:00:19.055Z,16.20
2022-11-08T15:02:55.296Z,16.18
2022-11-08T15:05:35.155Z,16.16
2022-11-08T15:08:21.248Z,16.12
2022-11-08T15:10:56.946Z,16.09
2022-11-08T15:13:33.553Z,16.05
2022-11-08T15:16:08.055Z,16.01
2022-11-08T15:18:43.284Z,15.97
2022-11-08T15:21:29.196Z,15.92
2022-11-08T15:24:14.444Z,15.90
2022-11-08T15:27:17.050Z,15.83
2022-11-08T15:29:52.429Z,15.75
2022-11-08T15:32:25.431Z,15.67
2022-11-08T15:34:58.788Z,15.63
2022-11-08T15:37:38.043Z,15.57
2022-11-08T15:40:20.042Z,15.49
2022-11-08T15:42:53.246Z,15.39
2022-11-08T15:45:29.094Z,15.30
2022-11-08T15:48:22.767Z,15.21
2022-11-08T15:50:57.851Z,15.09
2022-11-08T15:53:32.825Z,15.02
2022-11-08T15:56:06.927Z,14.90
2022-11-08T15:58:40.246Z,14.80
2022-11-08T16:01:18.935Z,14.71
2022-11-08T16:03:52.635Z,14.61
2022-11-08T16:06:25.638Z,14.50
2022-11-08T16:09:01.388Z,14.43
2022-11-08T16:11:34.897Z,14.31
2022-11-08T16:14:10.994Z,14.24
2022-11-08T16:16:43.864Z,14.16
2022-11-08T16:19:21.339Z,14.07
2022-11-08T16:21:54.341Z,14.01
2022-11-08T16:24:28.565Z,13.96
2022-11-08T16:27:02.648Z,13.91
2022-11-08T16:29:36.012Z,13.86
2022-11-08T16:32:11.069Z,13.82
2022-11-08T16:34:43.934Z,13.78
2022-11-08T16:37:16.859Z,13.73
2022-11-08T16:39:51.097Z,13.70
2022-11-08T16:42:24.175Z,13.67
2022-11-08T16:44:57.295Z,13.63
2022-11-08T16:47:30.836Z,13.59
2022-11-08T16:50:04.456Z,13.53
2022-11-08T16:52:37.354Z,13.51
2022-11-08T16:55:17.784Z,13.47
2022-11-08T16:57:50.900Z,13.41
2022-11-08T17:00:24.919Z,13.36
2022-11-08T17:02:57.847Z,13.32
2022-11-08T17:05:30.735Z,13.29
2022-11-08T17:08:03.646Z,13.21
2022-11-08T17:10:38.176Z,13.17
2022-11-08T17:13:14.028Z,13.10
2022-11-08T17:15:47.574Z,13.05
2022-11-08T17:18:22.101Z,13.02
2022-11-08T17:20:55.840Z,12.96
2022-11-08T17:23:28.725Z,12.91
2022-11-08T17:26:06.472Z,12.89
2022-11-08T17:28:39.932Z,12.82
2022-11-08T17:31:14.288Z,12.80
2022-11-08T17:33:47.594Z,12.76
2022-11-08T17:36:20.431Z,12.75
2022-11-08T17:38:53.352Z,12.73
2022-11-08T17:41:28.039Z,12.73
2022-11-08T17:44:00.951Z,12.73
2022-11-08T17:46:33.851Z,12.72
2022-11-08T17:49:06.787Z,12.72
2022-11-08T17:51:39.642Z,12.73
2022-11-08T17:54:12.610Z,12.75
2022-11-08T17:56:47.042Z,12.78
2022-11-08T17:59:20.197Z,12.79
2022-11-08T18:01:53.083Z,12.83
2022-11-08T18:04:25.994Z,12.88
2022-11-08T18:06:58.840Z,12.90
2022-11-08T18:09:31.948Z,12.94
2022-11-08T18:12:08.013Z,12.97
2022-11-08T18:14:40.943Z,12.98
2022-11-08T18:17:13.963Z,12.99
2022-11-08T18:19:49.940Z,13.00
2022-11-08T18:22:23.017Z,12.99
2022-11-08T18:24:55.881Z,12.99
2022-11-08T18:27:30.533Z,13.00
2022-11-08T18:30:03.349Z,12.97
2022-11-08T18:32:37.324Z,12.95
2022-11-08T18:35:27.418Z,12.92
2022-11-08T18:38:00.311Z,12.88
2022-11-08T18:40:33.276Z,12.83
2022-11-08T18:43:07.807Z,12.76
2022-11-08T18:45:40.687Z,12.70
2022-11-08T18:48:13.532Z,12.62
2022-11-08T18:50:50.632Z,12.60
2022-11-08T18:53:23.390Z,12.50
2022-11-08T18:55:56.268Z,12.42
2022-11-08T18:58:33.183Z,12.36
2022-11-08T19:01:07.236Z,12.25
2022-11-08T19:03:40.121Z,12.16
2022-11-08T19:06:13.155Z,12.06
2022-11-08T19:08:46.101Z,11.98
2022-11-08T19:11:22.798Z,11.89
2022-11-08T19:13:57.353Z,11.84
2022-11-08T19:16:30.533Z,11.77
2022-11-08T19:19:03.329Z,11.71
2022-11-08T19:21:36.809Z,11.69
2022-11-08T19:24:20.596Z,11.67
2022-11-08T19:26:53.706Z,11.61
2022-11-08T19:29:28.295Z,11.62
2022-11-08T19:32:01.247Z,11.56
2022-11-08T19:34:34.100Z,11.54
2022-11-08T19:37:07.182Z,11.52
2022-11-08T19:39:44.377Z,11.49
2022-11-08T19:42:17.432Z,11.48
2022-11-08T19:44:51.956Z,11.47
2022-11-08T19:47:24.817Z,11.42
2022-11-08T19:49:57.573Z,11.41
2022-11-08T19:52:30.389Z,11.40
2022-11-08T19:55:03.218Z,11.36
2022-11-08T19:57:36.126Z,11.33
2022-11-08T20:00:12.229Z,11.35
2022-11-08T20:02:45.141Z,11.31
2022-11-08T20:05:20.796Z,11.33
2022-11-08T20:07:53.991Z,11.30
2022-11-08T20:10:26.911Z,11.29
2022-11-08T20:13:03.127Z,11.27
2022-11-08T20:15:37.351Z,11.25
2022-11-08T20:18:10.856Z,11.22
2022-11-08T20:20:44.766Z,11.22
2022-11-08T20:23:18.680Z,11.21
2022-11-08T20:25:51.557Z,11.19
2022-11-08T20:28:24.589Z,11.17
2022-11-08T20:31:04.615Z,11.15
2022-11-08T20:33:39.562Z,11.11
2022-11-08T20:36:14.096Z,11.10
2022-11-08T20:38:47.306Z,11.06
2022-11-08T20:41:20.163Z,11.06
2022-11-08T20:43:53.009Z,11.00
2022-11-08T20:46:27.799Z,11.00
2022-11-08T20:49:01.320Z,10.95
2022-11-08T20:51:35.379Z,10.93
2022-11-08T20:54:11.706Z,10.93
2022-11-08T20:56:49.858Z,10.91
2022-11-08T20:59:28.086Z,10.88
2022-11-08T21:02:05.932Z,10.88
2022-11-08T21:04:47.905Z,10.85
2022-11-08T21:13:56.379Z,10.81
2022-11-08T21:16:31.862Z,10.81
2022-11-08T21:19:12.823Z,10.79
2022-11-08T21:21:47.747Z,10.75
2022-11-08T21:24:44.666Z,10.76
2022-11-08T21:27:18.157Z,10.75
2022-11-08T21:29:53.185Z,10.71
2022-11-08T21:32:26.119Z,10.70
2022-11-08T21:35:00.440Z,10.70
2022-11-08T21:37:33.304Z,10.67
2022-11-08T21:40:07.970Z,10.65
2022-11-08T21:42:46.091Z,10.61
2022-11-08T21:45:21.314Z,10.55
2022-11-08T21:47:55.082Z,10.52
2022-11-08T21:50:29.436Z,10.48
2022-11-08T21:53:02.920Z,10.43
2022-11-08T21:55:36.053Z,10.41
2022-11-08T21:58:09.856Z,10.37
2022-11-08T22:00:42.726Z,10.33
2022-11-08T22:03:15.731Z,10.32
2022-11-08T22:05:49.956Z,10.32
2022-11-08T22:08:22.751Z,10.30
2022-11-08T22:10:55.554Z,10.30
2022-11-08T22:13:28.396Z,10.27
2022-11-08T22:16:01.410Z,10.27
2022-11-08T22:21:43.316Z,10.21
2022-11-08T22:24:18.360Z,10.20
2022-11-08T22:26:52.827Z,10.18
2022-11-08T22:29:25.725Z,10.18
2022-11-08T22:31:58.602Z,10.18
2022-11-08T22:34:31.408Z,10.18
2022-11-08T22:37:05.557Z,10.16
2022-11-08T22:39:38.461Z,10.15
2022-11-08T22:42:11.310Z,10.13
2022-11-08T22:44:44.376Z,10.13
2022-11-08T22:47:17.255Z,10.11
2022-11-08T22:49:50.185Z,10.11
2022-11-08T22:52:24.518Z,10.12
2022-11-08T22:54:58.036Z,10.13
2022-11-08T22:57:30.982Z,10.15
2022-11-08T23:00:04.170Z,10.14
2022-11-08T23:02:37.199Z,10.13
2022-11-08T23:05:10.722Z,10.12
2022-11-08T23:07:45.050Z,10.10
2022-11-08T23:10:18.051Z,10.07
2022-11-08T23:13:08.421Z,10.02
2022-11-08T23:15:59.126Z,9.97
2022-11-08T23:18:31.916Z,9.93
2022-11-08T23:21:22.905Z,9.91
2022-11-08T23:24:15.045Z,9.90
2022-11-08T23:27:05.966Z,9.89
2022-11-08T23:29:56.727Z,9.91
2022-11-08T23:32:29.579Z,9.92
2022-11-08T23:35:02.774Z,9.97
2022-11-08T23:37:35.576Z,10.03
2022-11-08T23:40:30.834Z,10.10
2022-11-08T23:43:22.835Z,10.15
2022-11-08T23:45:55.857Z,10.23
2022-11-08T23:48:28.733Z,10.28
2022-11-08T23:51:01.722Z,10.33
2022-11-08T23:53:36.886Z,10.38
2022-11-08T23:56:11.445Z,10.40
2022-11-08T23:58:44.231Z,10.44
